Time;durP1;ratioP1;P1;durP2;ratioP2;P2;SDS_P1;SDS_P2;PMS_P1;PMS_P2;Temp;Humidity;BMP_temperature;BMP_pressure;BME280_temperature;BME280_humidity;BME280_pressure;Samples;Min_cycle;Max_cycle;Signal;HPM_P1;HPM_P2
2023/05/08 00:01:05;;;;;;;1999.90;999.90;;;;;;;15.70;100.00;98156.31;5034453;28;20017;-74
2023/05/08 00:03:30;;;;;;;1999.90;999.90;;;;;;;15.54;100.00;98155.16;5034450;28;20104;-75
2023/05/08 00:05:56;;;;;;;1999.90;999.90;;;;;;;15.50;100.00;98148.69;5034286;28;20112;-74
2023/05/08 00:08:22;;;;;;;1999.90;999.90;;;;;;;15.56;100.00;98158.41;5034264;28;20036;-75
2023/05/08 00:10:47;;;;;;;1999.90;999.90;;;;;;;15.47;100.00;98150.09;5034448;28;20557;-74
2023/05/08 00:13:13;;;;;;;1999.90;999.90;;;;;;;15.45;100.00;98152.34;5034607;28;20029;-75
2023/05/08 00:15:38;;;;;;;1999.90;999.90;;;;;;;15.40;100.00;98151.69;5034164;28;20056;-74
2023/05/08 00:18:04;;;;;;;1999.90;999.90;;;;;;;15.34;100.00;98144.72;5034144;28;20445;-75
2023/05/08 00:20:29;;;;;;;1999.90;999.90;;;;;;;15.23;100.00;98152.47;5034098;28;20390;-75
2023/05/08 00:22:56;;;;;;;1999.90;999.90;;;;;;;15.24;100.00;98150.53;5016182;28;20079;-74
2023/05/08 00:25:22;;;;;;;1999.90;999.90;;;;;;;15.26;100.00;98140.00;5033938;28;20040;-74
2023/05/08 00:27:47;;;;;;;1999.90;999.90;;;;;;;15.26;100.00;98140.81;5033984;28;20477;-75
2023/05/08 00:30:13;;;;;;;1999.90;999.90;;;;;;;15.27;100.00;98160.91;5016164;28;20489;-74
2023/05/08 00:32:38;;;;;;;1999.90;999.90;;;;;;;15.21;100.00;98153.94;5033908;28;20044;-75
2023/05/08 00:35:04;;;;;;;1999.90;999.90;;;;;;;15.14;100.00;98153.56;5033801;28;20474;-74
2023/05/08 00:37:29;;;;;;;1999.90;999.90;;;;;;;15.08;100.00;98152.91;5036391;28;20056;-74
2023/05/08 00:39:55;;;;;;;1999.90;999.90;;;;;;;15.22;100.00;98150.06;5053818;28;20025;-74
2023/05/08 00:42:20;;;;;;;1999.90;999.90;;;;;;;15.34;100.00;98162.06;5054122;28;20090;-74
2023/05/08 00:44:45;;;;;;;1999.90;999.90;;;;;;;15.23;100.00;98140.63;5053283;28;20102;-74
2023/05/08 00:47:11;;;;;;;1999.90;999.90;;;;;;;15.30;100.00;98163.03;5053737;28;20358;-74
2023/05/08 00:49:37;;;;;;;1999.90;999.90;;;;;;;15.30;100.00;98152.00;5053578;28;20013;-74
2023/05/08 00:52:07;;;;;;;1999.90;999.90;;;;;;;15.25;100.00;98147.47;5053776;28;20029;-74
2023/05/08 00:54:35;;;;;;;1999.90;999.90;;;;;;;15.30;100.00;98163.84;5053420;28;20110;-74
2023/05/08 00:57:01;;;;;;;1999.90;999.90;;;;;;;15.35;100.00;98160.09;5053278;28;20028;-74
2023/05/08 00:59:27;;;;;;;1999.90;999.90;;;;;;;15.22;100.00;98153.63;5053410;28;20032;-75
2023/05/08 01:01:52;;;;;;;1999.90;999.90;;;;;;;15.19;100.00;98158.97;5053316;28;20021;-74
2023/05/08 01:04:23;;;;;;;1999.90;999.90;;;;;;;15.24;100.00;98162.38;5053030;28;20036;-74
2023/05/08 01:06:49;;;;;;;1999.90;999.90;;;;;;;15.31;100.00;98156.41;5053136;28;20501;-73
2023/05/08 01:09:14;;;;;;;1999.90;999.90;;;;;;;15.28;100.00;98162.53;5052694;28;20029;-74
2023/05/08 01:12:16;;;;;;;1999.90;999.90;;;;;;;15.38;100.00;98157.53;5053280;28;20079;-74
2023/05/08 01:15:05;;;;;;;1999.90;999.90;;;;;;;15.45;100.00;98157.06;5053285;28;20075;-74
2023/05/08 01:17:42;;;;;;;1999.90;999.90;;;;;;;15.43;100.00;98164.84;5052875;28;20075;-74
2023/05/08 01:20:26;;;;;;;1999.90;999.90;;;;;;;15.35;100.00;98151.84;5053951;28;20519;-73
2023/05/08 01:23:22;;;;;;;1999.90;999.90;;;;;;;15.33;100.00;98159.63;5054342;28;20120;-74
2023/05/08 01:26:24;;;;;;;1999.90;999.90;;;;;;;15.20;100.00;98149.53;5042327;28;20120;-74
2023/05/08 01:29:08;;;;;;;1999.90;999.90;;;;;;;15.27;100.00;98160.91;5037593;28;20029;-74
2023/05/08 01:31:42;;;;;;;1999.90;999.90;;;;;;;15.24;100.00;98156.03;5032810;28;20124;-74
2023/05/08 01:34:16;;;;;;;1999.90;999.90;;;;;;;15.21;100.00;98157.50;5033099;28;20040;-74
2023/05/08 01:36:53;;;;;;;1999.90;999.90;;;;;;;15.24;100.00;98158.81;5038788;28;20039;-74
2023/05/08 01:39:41;;;;;;;1999.90;999.90;;;;;;;15.26;100.00;98164.78;5051969;28;20053;-74
2023/05/08 01:42:23;;;;;;;1999.90;999.90;;;;;;;15.25;100.00;98169.53;5052918;28;20453;-74
2023/05/08 01:44:55;;;;;;;1999.90;999.90;;;;;;;15.15;100.00;98169.00;5052642;28;20109;-74
2023/05/08 01:47:24;;;;;;;1999.90;999.90;;;;;;;15.20;100.00;98171.59;5052483;28;20020;-74
2023/05/08 01:50:00;;;;;;;1999.90;999.90;;;;;;;15.22;100.00;98170.16;5052616;28;20021;-74
2023/05/08 01:52:32;;;;;;;1999.90;999.90;;;;;;;15.14;100.00;98164.59;5052463;28;20481;-74
2023/05/08 01:55:07;;;;;;;1999.90;999.90;;;;;;;15.09;100.00;98170.28;5052192;28;20528;-74
2023/05/08 01:57:36;;;;;;;1999.90;999.90;;;;;;;15.07;100.00;98167.03;5052101;28;20393;-74
2023/05/08 02:00:03;;;;;;;1999.90;999.90;;;;;;;15.09;100.00;98164.75;5052211;28;20079;-73
2023/05/08 02:02:30;;;;;;;1999.90;999.90;;;;;;;15.07;100.00;98172.53;5052223;28;20021;-74
2023/05/08 02:04:57;;;;;;;1999.90;999.90;;;;;;;15.12;100.00;98166.88;5052243;28;20025;-74
2023/05/08 02:07:24;;;;;;;1999.90;999.90;;;;;;;15.17;100.00;98166.72;5052194;28;20021;-73
2023/05/08 02:09:50;;;;;;;1999.90;999.90;;;;;;;15.15;100.00;98166.22;5051937;28;20025;-74
2023/05/08 02:12:17;;;;;;;1999.90;999.90;;;;;;;15.13;100.00;98168.50;5051975;28;20087;-74
2023/05/08 02:14:46;;;;;;;1999.90;999.90;;;;;;;15.15;100.00;98169.00;5053096;28;20389;-73
2023/05/08 02:17:15;;;;;;;1999.90;999.90;;;;;;;15.13;100.00;98177.56;5052117;28;20428;-73
2023/05/08 02:19:42;;;;;;;1999.90;999.90;;;;;;;15.03;100.00;98164.09;5033853;28;20492;-74
2023/05/08 02:22:08;;;;;;;1999.90;999.90;;;;;;;15.03;100.00;98164.88;5051122;28;20489;-74
2023/05/08 02:24:35;;;;;;;1999.90;999.90;;;;;;;15.15;100.00;98175.31;5031982;28;20029;-73
2023/05/08 02:27:01;;;;;;;1999.90;999.90;;;;;;;15.14;100.00;98167.34;5040587;28;20115;-73
2023/05/08 02:29:27;;;;;;;1999.90;999.90;;;;;;;15.17;100.00;98166.72;5051344;28;20691;-74
2023/05/08 02:31:55;;;;;;;1999.90;999.90;;;;;;;15.14;100.00;98172.88;5035315;28;20022;-74
2023/05/08 02:34:22;;;;;;;1999.90;999.90;;;;;;;15.02;100.00;98166.03;5035948;28;20032;-74
2023/05/08 02:36:51;;;;;;;1999.90;999.90;;;;;;;15.02;100.00;98155.03;5050921;28;20029;-74
2023/05/08 02:39:18;;;;;;;1999.90;999.90;;;;;;;15.04;100.00;98157.44;5050993;28;20501;-74
2023/05/08 02:41:43;;;;;;;1999.90;999.90;;;;;;;15.06;100.00;98157.13;5050919;28;20032;-74
2023/05/08 02:44:09;;;;;;;1999.90;999.90;;;;;;;14.98;100.00;98143.00;5051385;28;20021;-74
2023/05/08 02:46:37;;;;;;;1999.90;999.90;;;;;;;15.13;100.00;98151.97;5051176;28;20043;-73
2023/05/08 02:49:32;;;;;;;1999.90;999.90;;;;;;;15.13;100.00;98150.00;5051037;28;20052;-74
2023/05/08 02:52:12;;;;;;;1999.90;999.90;;;;;;;15.07;100.00;98139.47;5050835;28;20025;-74
2023/05/08 02:55:02;;;;;;;1999.90;999.90;;;;;;;15.09;100.00;98156.50;5050768;28;20071;-74
2023/05/08 02:57:47;;;;;;;1999.90;999.90;;;;;;;14.90;100.00;98160.31;5051026;28;20036;-74
2023/05/08 03:00:36;;;;;;;1999.90;999.90;;;;;;;14.91;100.00;98161.94;5051095;28;20033;-74
2023/05/08 03:03:31;;;;;;;1999.90;999.90;;;;;;;14.92;100.00;98162.75;5050929;28;20608;-73
2023/05/08 03:06:01;;;;;;;1999.90;999.90;;;;;;;14.86;100.00;98155.75;5032849;28;20128;-74
2023/05/08 03:08:29;;;;;;;1999.90;999.90;;;;;;;14.80;100.00;98157.84;5051016;28;20385;-73
2023/05/08 03:10:58;;;;;;;1999.90;999.90;;;;;;;14.87;100.00;98162.91;5050727;28;20116;-74
2023/05/08 03:13:26;;;;;;;1999.90;999.90;;;;;;;14.88;100.00;98162.56;5050950;28;20359;-74
2023/05/08 03:15:55;;;;;;;1999.90;999.90;;;;;;;14.85;100.00;98156.88;5032840;28;20036;-74
2023/05/08 03:18:25;;;;;;;1999.90;999.90;;;;;;;14.88;100.00;98156.25;5050315;28;20039;-73
2023/05/08 03:20:55;;;;;;;1999.90;999.90;;;;;;;14.87;100.00;98157.38;5050432;28;20039;-74
2023/05/08 03:23:23;;;;;;;1999.90;999.90;;;;;;;14.84;100.00;98164.34;5050439;28;20474;-75
2023/05/08 03:25:50;;;;;;;1999.90;999.90;;;;;;;14.80;100.00;98163.34;5050757;28;20033;-75
2023/05/08 03:28:17;;;;;;;1999.90;999.90;;;;;;;14.96;100.00;98164.56;5061803;28;20024;-74
2023/05/08 03:30:42;;;;;;;1999.90;999.90;;;;;;;14.95;100.00;98170.38;5070332;28;20556;-75
2023/05/08 03:33:10;;;;;;;1999.90;999.90;;;;;;;14.92;100.00;98165.50;5070075;28;20116;-74
2023/05/08 03:35:37;;;;;;;1999.90;999.90;;;;;;;14.84;100.00;98161.59;5070266;28;20025;-75
2023/05/08 03:38:03;;;;;;;1999.90;999.90;;;;;;;14.82;100.00;98163.84;5062720;28;20045;-74
2023/05/08 03:40:29;;;;;;;1999.90;999.90;;;;;;;14.90;100.00;98168.59;5050779;28;20021;-75
2023/05/08 03:42:55;;;;;;;1999.90;999.90;;;;;;;14.93;100.00;98159.69;5050503;28;20381;-75
2023/05/08 03:45:21;;;;;;;1999.90;999.90;;;;;;;14.93;100.00;98162.44;5051940;28;20028;-73
2023/05/08 03:47:47;;;;;;;1999.90;999.90;;;;;;;14.94;100.00;98168.78;5051249;28;20033;-73
2023/05/08 03:50:14;;;;;;;1999.90;999.90;;;;;;;14.89;100.00;98166.94;5050991;28;20017;-73
2023/05/08 03:52:39;;;;;;;1999.90;999.90;;;;;;;14.85;100.00;98176.97;5050278;28;20111;-73
2023/05/08 03:55:05;;;;;;;1999.90;999.90;;;;;;;14.76;100.00;98173.38;5050263;28;20055;-73
2023/05/08 03:57:38;;;;;;;1999.90;999.90;;;;;;;14.66;100.00;98178.38;5050415;28;20029;-73
2023/05/08 04:00:18;;;;;;;1999.90;999.90;;;;;;;14.53;100.00;98191.09;5050314;28;20021;-73
2023/05/08 04:02:56;;;;;;;1999.90;999.90;;;;;;;14.30;100.00;98186.69;5050334;28;20035;-73
2023/05/08 04:05:33;;;;;;;1999.90;999.90;;;;;;;14.08;100.00;98192.19;5050401;28;20095;-73
2023/05/08 04:08:07;;;;;;;1999.90;999.90;;;;;;;13.92;100.00;98175.25;5050372;28;20541;-73
2023/05/08 04:10:42;;;;;;;1999.90;999.90;;;;;;;13.93;100.00;98199.69;5027125;28;20033;-74
2023/05/08 04:13:12;;;;;;;1999.90;999.90;;;;;;;13.86;100.00;98199.31;5010002;28;20414;-74
2023/05/08 04:15:47;;;;;;;1999.90;999.90;;;;;;;13.77;100.00;98201.16;5025358;28;20054;-73
2023/05/08 04:18:17;;;;;;;1999.90;999.90;;;;;;;13.70;100.00;98206.25;5010139;28;20034;-73
2023/05/08 04:20:46;;;;;;;1999.90;999.90;;;;;;;13.69;100.00;98206.59;5010173;28;20387;-73
2023/05/08 04:23:15;;;;;;;1999.90;999.90;;;;;;;13.73;100.00;98210.31;5010079;28;20022;-73
2023/05/08 04:25:43;;;;;;;1999.90;999.90;;;;;;;13.71;100.00;98210.66;4992566;28;20033;-73
2023/05/08 04:28:10;;;;;;;1999.90;999.90;;;;;;;13.70;100.00;98210.94;5010094;28;20071;-74
2023/05/08 04:30:35;;;;;;;1999.90;999.90;;;;;;;13.69;100.00;98215.63;5010207;28;20030;-74
2023/05/08 04:33:03;;;;;;;1999.90;999.90;;;;;;;13.64;100.00;98218.50;5010459;28;20484;-74
2023/05/08 04:35:28;;;;;;;1999.90;999.90;;;;;;;13.40;100.00;98207.75;5010043;28;20100;-74
2023/05/08 04:37:54;;;;;;;1999.90;999.90;;;;;;;13.32;100.00;98213.13;5009863;28;20085;-73
2023/05/08 04:40:19;;;;;;;1999.90;999.90;;;;;;;13.23;100.00;98217.72;5008688;28;20044;-73
2023/05/08 04:42:46;;;;;;;1999.90;999.90;;;;;;;13.09;100.00;98216.94;5019695;28;20112;-74
2023/05/08 04:45:12;;;;;;;1999.90;999.90;;;;;;;13.05;100.00;98213.94;5032253;28;20061;-71
2023/05/08 04:47:37;;;;;;;1999.90;999.90;;;;;;;13.11;100.00;98215.50;5033447;28;20071;-70
2023/05/08 04:50:03;;;;;;;1999.90;999.90;;;;;;;13.12;100.00;98216.31;5030701;28;20060;-71
2023/05/08 04:52:28;;;;;;;1999.90;999.90;;;;;;;13.13;100.00;98217.94;4998415;28;20025;-70
2023/05/08 04:54:53;;;;;;;1999.90;999.90;;;;;;;12.98;100.00;98215.47;5013401;28;20088;-72
2023/05/08 04:57:19;;;;;;;1999.90;999.90;;;;;;;12.88;100.00;98222.78;5013365;28;20034;-71
2023/05/08 04:59:44;;;;;;;1999.90;999.90;;;;;;;12.82;100.00;98215.75;5013168;28;20525;-71
2023/05/08 05:02:09;;;;;;;1999.90;999.90;;;;;;;12.77;100.00;98207.63;5013157;28;20037;-73
2023/05/08 05:04:35;;;;;;;1999.90;999.90;;;;;;;12.78;100.00;98211.19;5020463;28;20088;-71
2023/05/08 05:07:02;;;;;;;1999.90;999.90;;;;;;;12.84;100.00;98219.00;5032779;28;20025;-71
2023/05/08 05:09:27;;;;;;;1999.90;999.90;;;;;;;12.75;100.00;98201.59;5032571;28;20501;-72
2023/05/08 05:11:53;;;;;;;1999.90;999.90;;;;;;;12.90;100.00;98226.03;5033074;28;20072;-72
2023/05/08 05:14:18;;;;;;;1999.90;999.90;;;;;;;12.94;100.00;98225.44;5033089;28;20021;-72
2023/05/08 05:16:44;;;;;;;1999.90;999.90;;;;;;;12.89;100.00;98235.41;5032630;28;20099;-71
2023/05/08 05:19:09;;;;;;;1999.90;999.90;;;;;;;12.78;100.00;98227.66;5031421;28;20040;-69
2023/05/08 05:21:36;;;;;;;1999.90;999.90;;;;;;;12.70;100.00;98231.91;5031805;28;20852;-71
2023/05/08 05:24:02;;;;;;;1999.90;999.90;;;;;;;12.65;100.00;98223.78;5031674;28;20087;-70
2023/05/08 05:26:27;;;;;;;1999.90;999.90;;;;;;;12.78;100.00;98252.38;5030942;28;20026;-70
2023/05/08 05:28:53;;;;;;;1999.90;999.90;;;;;;;12.84;100.00;98243.72;5020062;28;20025;-71
2023/05/08 05:31:18;;;;;;;1999.90;999.90;;;;;;;12.85;100.00;98248.09;5022275;28;20086;-71
2023/05/08 05:33:43;;;;;;;1999.90;999.90;;;;;;;12.90;100.00;98253.47;5020635;28;20505;-70
2023/05/08 05:36:09;;;;;;;1999.90;999.90;;;;;;;12.90;100.00;98253.47;5030007;28;20026;-71
2023/05/08 05:38:34;;;;;;;1999.90;999.90;;;;;;;12.82;100.00;98247.88;5031313;28;20619;-70
2023/05/08 05:40:59;;;;;;;1999.90;999.90;;;;;;;12.64;100.00;98232.28;5031053;28;20036;-71
2023/05/08 05:43:25;;;;;;;1999.90;999.90;;;;;;;12.71;100.00;98254.69;5013502;28;20022;-71
2023/05/08 05:45:50;;;;;;;1999.90;999.90;;;;;;;12.71;100.00;98255.50;5012791;28;20441;-71
2023/05/08 05:48:15;;;;;;;1999.90;999.90;;;;;;;12.77;100.00;98258.97;5012305;28;20053;-71
2023/05/08 05:50:41;;;;;;;1999.90;999.90;;;;;;;12.84;100.00;98260.19;5011076;28;20061;-71
2023/05/08 05:53:06;;;;;;;1999.90;999.90;;;;;;;12.77;100.00;98253.47;5015134;28;20057;-71
2023/05/08 05:55:31;;;;;;;1999.90;999.90;;;;;;;12.79;100.00;98254.78;5019102;28;20483;-71
2023/05/08 05:57:57;;;;;;;1999.90;999.90;;;;;;;12.87;100.00;98267.81;5010878;28;20026;-71
2023/05/08 06:00:22;;;;;;;1999.90;999.90;;;;;;;12.87;100.00;98265.06;4993810;28;20059;-71
2023/05/08 06:02:47;;;;;;;1999.90;999.90;;;;;;;12.80;100.00;98264.66;5011531;28;20030;-72
2023/05/08 06:05:13;;;;;;;1999.90;999.90;;;;;;;12.77;100.00;98259.78;5019820;28;20045;-73
2023/05/08 06:07:38;;;;;;;1999.90;999.90;;;;;;;12.74;100.00;98268.63;5011904;28;20034;-74
2023/05/08 06:10:04;;;;;;;1999.90;999.90;;;;;;;12.67;100.00;98270.94;5013059;28;20026;-73
2023/05/08 06:12:30;;;;;;;1999.90;999.90;;;;;;;12.75;100.00;98278.47;5013155;28;20064;-74
2023/05/08 06:14:55;;;;;;;1999.90;999.90;;;;;;;12.71;100.00;98282.94;5012705;28;20057;-74
2023/05/08 06:17:21;;;;;;;1999.90;999.90;;;;;;;12.67;100.00;98286.59;5011968;28;20029;-74
2023/05/08 06:19:49;;;;;;;1999.90;999.90;;;;;;;12.71;100.00;98284.88;5011991;28;20517;-73
2023/05/08 06:22:16;;;;;;;1999.90;999.90;;;;;;;12.63;100.00;98291.03;4994561;28;20030;-75
2023/05/08 06:24:43;;;;;;;1999.90;999.90;;;;;;;12.64;100.00;98296.25;5011733;28;20043;-76
2023/05/08 06:27:09;;;;;;;1999.90;999.90;;;;;;;12.68;100.00;98291.78;5012628;28;20056;-74
2023/05/08 06:29:35;;;;;;;1999.90;999.90;;;;;;;12.73;100.00;98299.91;5011874;28;20494;-74
2023/05/08 06:32:01;;;;;;;1999.90;999.90;;;;;;;12.76;100.00;98302.06;5011614;28;20042;-74
2023/05/08 06:34:26;;;;;;;1999.90;999.90;;;;;;;12.66;100.00;98301.41;5011397;28;20029;-74
2023/05/08 06:36:51;;;;;;;1999.90;999.90;;;;;;;12.70;100.00;98306.00;5011797;28;20036;-74
2023/05/08 06:39:17;;;;;;;1999.90;999.90;;;;;;;12.64;100.00;98315.44;5016054;28;20045;-75
2023/05/08 06:41:46;;;;;;;1999.90;999.90;;;;;;;12.71;100.00;98309.56;5030671;28;20057;-74
2023/05/08 06:44:11;;;;;;;1999.90;999.90;;;;;;;12.51;100.00;98310.72;5029244;28;20025;-75
2023/05/08 06:46:36;;;;;;;1999.90;999.90;;;;;;;12.59;100.00;98323.75;5030618;28;20026;-75
2023/05/08 06:49:02;;;;;;;1999.90;999.90;;;;;;;12.55;100.00;98317.25;5030471;28;20486;-75
2023/05/08 06:51:27;;;;;;;1999.90;999.90;;;;;;;12.62;100.00;98322.34;5030586;28;20053;-74
2023/05/08 06:53:52;;;;;;;1999.90;999.90;;;;;;;12.58;100.00;98322.13;5030478;28;20033;-75
2023/05/08 06:56:17;;;;;;;1999.90;999.90;;;;;;;12.37;100.00;98326.31;5030399;28;20033;-74
2023/05/08 06:58:43;;;;;;;1999.90;999.90;;;;;;;12.35;100.00;98328.53;5030379;28;20119;-75
2023/05/08 07:01:08;;;;;;;1999.90;999.90;;;;;;;12.43;100.00;98325.13;5030393;28;20025;-74
2023/05/08 07:03:33;;;;;;;1999.90;999.90;;;;;;;12.42;100.00;98339.94;5030132;28;20022;-75
2023/05/08 07:05:59;;;;;;;1999.90;999.90;;;;;;;12.51;100.00;98343.66;5030472;28;20059;-74
2023/05/08 07:08:24;;;;;;;1999.90;999.90;;;;;;;12.40;100.00;98353.16;5030129;28;20029;-74
2023/05/08 07:10:50;;;;;;;1999.90;999.90;;;;;;;12.32;100.00;98335.44;5030255;28;20103;-75
2023/05/08 07:13:18;;;;;;;1999.90;999.90;;;;;;;12.40;100.00;98346.84;5030178;28;20032;-74
2023/05/08 07:15:44;;;;;;;1999.90;999.90;;;;;;;12.26;100.00;98344.84;5030118;28;20037;-75
2023/05/08 07:18:09;;;;;;;1999.90;999.90;;;;;;;12.26;100.00;98344.03;5030071;28;20497;-74
2023/05/08 07:20:34;;;;;;;1999.90;999.90;;;;;;;12.28;100.00;98355.50;5030219;28;20459;-74
2023/05/08 07:23:00;;;;;;;1999.90;999.90;;;;;;;12.24;100.00;98343.50;5029884;28;20044;-74
2023/05/08 07:25:25;;;;;;;1999.90;999.90;;;;;;;12.30;100.00;98354.13;5029897;28;20110;-75
2023/05/08 07:27:50;;;;;;;1999.90;999.90;;;;;;;12.14;100.00;98343.66;5030099;28;20030;-74
2023/05/08 07:30:16;;;;;;;1999.90;999.90;;;;;;;12.20;100.00;98354.25;5028803;28;20025;-74
2023/05/08 07:32:41;;;;;;;1999.90;999.90;;;;;;;12.28;100.00;98361.00;5029971;28;20021;-74
2023/05/08 07:35:08;;;;;;;1999.90;999.90;;;;;;;12.24;100.00;98354.50;5029832;28;20522;-74
2023/05/08 07:37:34;;;;;;;1999.90;999.90;;;;;;;12.23;100.00;98364.63;5030226;28;20048;-74
2023/05/08 07:39:59;;;;;;;1999.90;999.90;;;;;;;12.08;100.00;98367.59;4950274;28;2291849;-73
2023/05/08 07:42:25;;;;;;;1999.90;999.90;;;;;;;12.09;100.00;98368.41;5030535;28;20042;-74
2023/05/08 07:44:50;;;;;;;1999.90;999.90;;;;;;;12.13;100.00;98363.94;5030387;28;20030;-74
2023/05/08 07:47:15;;;;;;;1999.90;999.90;;;;;;;12.15;100.00;98373.50;5030384;28;20470;-74
2023/05/08 07:49:41;;;;;;;1999.90;999.90;;;;;;;12.10;100.00;98364.53;5030771;28;20057;-75
2023/05/08 07:52:06;;;;;;;1999.90;999.90;;;;;;;12.20;100.00;98375.38;5031516;28;20062;-75
2023/05/08 07:54:31;;;;;;;1999.90;999.90;;;;;;;12.16;100.00;98375.16;5030919;28;20029;-75
2023/05/08 07:56:57;;;;;;;1999.90;999.90;;;;;;;12.09;100.00;98368.41;5030294;28;20457;-74
2023/05/08 07:59:22;;;;;;;1999.90;999.90;;;;;;;12.04;100.00;98357.50;5032468;28;20029;-73
2023/05/08 08:01:47;;;;;;;1999.90;999.90;;;;;;;12.06;100.00;98374.50;5040138;28;20030;-74
2023/05/08 08:04:15;;;;;;;1999.90;999.90;;;;;;;11.98;100.00;98373.22;5034149;28;20037;-74
2023/05/08 08:06:41;;;;;;;1999.90;999.90;;;;;;;11.89;100.00;98380.44;5031442;28;20036;-73
2023/05/08 08:09:06;;;;;;;1999.90;999.90;;;;;;;11.97;100.00;98379.78;5031030;28;20026;-73
2023/05/08 08:11:32;;;;;;;1999.90;999.90;;;;;;;12.08;100.00;98370.34;5030584;28;20026;-75
2023/05/08 08:13:57;;;;;;;1999.90;999.90;;;;;;;12.17;100.00;98384.19;5030377;28;20180;-74
2023/05/08 08:16:22;;;;;;;1999.90;999.90;;;;;;;12.12;100.00;98373.31;5030099;28;20107;-73
2023/05/08 08:18:48;;;;;;;1999.90;999.90;;;;;;;12.10;100.00;98381.00;5030246;28;20398;-74
2023/05/08 08:21:13;;;;;;;1999.90;999.90;;;;;;;12.10;100.00;98375.50;5034184;28;20389;-73
2023/05/08 08:23:39;;;;;;;1999.90;999.90;;;;;;;12.15;100.00;98380.94;5034158;28;20033;-73
2023/05/08 08:26:04;;;;;;;1999.90;999.90;;;;;;;12.10;100.00;98375.50;5034044;28;20482;-74
2023/05/08 08:28:29;;;;;;;1999.90;999.90;;;;;;;12.20;100.00;98386.34;5034063;28;20048;-73
2023/05/08 08:30:55;;;;;;;1999.90;999.90;;;;;;;12.17;100.00;98390.50;5034034;28;20036;-73
2023/05/08 08:33:20;;;;;;;1999.90;999.90;;;;;;;12.28;100.00;98383.75;5034593;28;20048;-74
2023/05/08 08:35:45;;;;;;;1999.90;999.90;;;;;;;12.34;100.00;98395.50;5034495;28;20028;-74
2023/05/08 08:38:11;;;;;;;1999.90;999.90;;;;;;;12.27;100.00;98378.59;5034559;28;20128;-74
2023/05/08 08:40:40;;;;;;;1999.90;999.90;;;;;;;12.26;100.00;98385.16;5033790;28;20045;-74
2023/05/08 08:43:06;;;;;;;1999.90;999.90;;;;;;;12.24;100.00;98393.72;5033894;28;20450;-74
2023/05/08 08:45:32;;;;;;;1999.90;999.90;;;;;;;12.26;100.00;98393.41;5033576;28;20112;-73
2023/05/08 08:48:00;;;;;;;1999.90;999.90;;;;;;;12.20;100.00;98386.34;5033628;28;20104;-74
2023/05/08 08:50:31;;;;;;;1999.90;999.90;;;;;;;12.10;100.00;98381.00;5033671;28;20036;-73
2023/05/08 08:53:13;;;;;;;1999.90;999.90;;;;;;;12.18;100.00;98392.16;5033549;28;21073;-73
2023/05/08 08:55:44;;;;;;;1999.90;999.90;;;;;;;12.28;100.00;98399.38;5033530;28;20493;-73
2023/05/08 08:58:10;;;;;;;1999.90;999.90;;;;;;;12.29;100.00;98396.38;5033312;28;20064;-73
2023/05/08 09:00:36;;;;;;;1999.90;999.90;;;;;;;12.20;100.00;98391.84;5033425;28;20084;-73
2023/05/08 09:03:03;;;;;;;1999.90;999.90;;;;;;;12.14;100.00;98387.53;5033248;28;20263;-74
2023/05/08 09:05:31;;;;;;;1999.90;999.90;;;;;;;12.29;100.00;98385.41;5029634;28;20022;-73
2023/05/08 09:07:57;;;;;;;1999.90;999.90;;;;;;;12.37;100.00;98389.41;5013978;28;20045;-73
2023/05/08 09:10:23;;;;;;;1999.90;999.90;;;;;;;12.33;100.00;98389.19;5013608;28;20033;-74
2023/05/08 09:12:49;;;;;;;1999.90;999.90;;;;;;;12.26;100.00;98396.13;5013516;28;20034;-74
2023/05/08 09:15:14;;;;;;;1999.90;999.90;;;;;;;12.27;100.00;98393.13;5012507;28;20034;-73
2023/05/08 09:17:40;;;;;;;1999.90;999.90;;;;;;;12.26;100.00;98396.97;5013869;28;20030;-74
2023/05/08 09:20:06;;;;;;;1999.90;999.90;;;;;;;12.41;100.00;98398.66;5013476;28;20498;-73
2023/05/08 09:22:34;;;;;;;1999.90;999.90;;;;;;;12.55;100.00;98394.09;5012717;28;20042;-74
2023/05/08 09:25:01;;;;;;;1999.90;999.90;;;;;;;12.54;100.00;98402.59;5013067;28;20022;-74
2023/05/08 09:27:28;;;;;;;1999.90;999.90;;;;;;;12.47;100.00;98399.44;5013104;28;20025;-74
2023/05/08 09:30:09;;;;;;;1999.90;999.90;;;;;;;12.41;100.00;98409.63;5012842;28;20029;-74
2023/05/08 09:32:37;;;;;;;1999.90;999.90;;;;;;;12.37;100.00;98408.63;5013028;28;20042;-74
2023/05/08 09:35:03;;;;;;;1999.90;999.90;;;;;;;12.36;100.00;98406.97;5013026;28;20143;-73
2023/05/08 09:37:28;;;;;;;1999.90;999.90;;;;;;;12.58;100.00;98409.13;5013156;28;20072;-74
2023/05/08 09:39:54;;;;;;;1999.90;999.90;;;;;;;12.65;100.00;98415.06;5012917;28;20050;-74
2023/05/08 09:42:19;;;;;;;1999.90;999.90;;;;;;;12.37;100.00;98413.28;5012997;28;20436;-74
2023/05/08 09:44:49;;;;;;;1999.90;999.90;;;;;;;12.54;100.00;98419.06;5012842;28;20482;-73
2023/05/08 09:47:17;;;;;;;1999.90;999.90;;;;;;;12.43;100.00;98423.91;5012998;28;20026;-74
2023/05/08 09:49:55;;;;;;;1999.90;999.90;;;;;;;12.53;100.00;98429.22;5012767;28;20222;-74
2023/05/08 09:52:21;;;;;;;1999.90;999.90;;;;;;;12.49;100.00;98428.19;4995011;28;20442;-73
2023/05/08 09:54:48;;;;;;;1999.90;999.90;;;;;;;12.53;100.00;98428.44;5012752;28;20030;-73
2023/05/08 09:57:13;;;;;;;1999.90;999.90;;;;;;;12.62;100.00;98421.16;5012482;28;20376;-73
2023/05/08 09:59:38;;;;;;;1999.90;999.90;;;;;;;12.48;100.00;98415.59;5012707;28;20044;-74
2023/05/08 10:02:11;;;;;;;1999.90;999.90;;;;;;;12.41;100.00;98430.75;5012485;28;20022;-73
2023/05/08 10:04:37;;;;;;;1999.90;999.90;;;;;;;12.59;100.00;98422.53;5012552;28;20025;-73
2023/05/08 10:07:03;;;;;;;1999.90;999.90;;;;;;;12.89;100.00;98430.34;5012516;28;20042;-73
2023/05/08 10:09:28;;;;;;;1999.90;999.90;;;;;;;12.96;100.00;98424.47;5017619;28;20030;-74
2023/05/08 10:11:54;;;;;;;1999.90;999.90;;;;;;;12.94;100.00;98428.63;4996765;28;20033;-74
2023/05/08 10:14:23;;;;;;;1999.90;999.90;;;;;;;12.87;100.00;98423.53;5012295;28;20105;-73
2023/05/08 10:16:54;;;;;;;1999.90;999.90;;;;;;;12.82;100.00;98416.16;5012053;28;20041;-73
2023/05/08 10:19:23;;;;;;;1999.90;999.90;;;;;;;13.02;100.00;98420.53;5012130;28;20044;-73
2023/05/08 10:21:51;;;;;;;1999.90;999.90;;;;;;;13.15;100.00;98422.53;5012108;28;20049;-73
2023/05/08 10:24:18;;;;;;;1999.90;999.90;;;;;;;13.07;100.00;98422.34;5011979;28;20036;-74
2023/05/08 10:26:54;;;;;;;1999.90;999.90;;;;;;;12.99;100.00;98420.31;5011926;28;20033;-73
2023/05/08 10:29:27;;;;;;;1999.90;999.90;;;;;;;12.88;100.00;98414.16;5011990;28;20033;-74
2023/05/08 10:31:56;;;;;;;1999.90;999.90;;;;;;;13.10;100.00;98422.59;5011836;28;20557;-73
2023/05/08 10:34:22;;;;;;;1999.90;999.90;;;;;;;13.06;100.00;98398.78;5011679;28;20032;-74
2023/05/08 10:36:51;;;;;;;1999.90;999.90;;;;;;;13.17;100.00;98414.81;5011755;28;20391;-73
2023/05/08 10:39:17;;;;;;;1999.90;999.90;;;;;;;13.11;100.00;98412.44;5012329;28;20574;-73
2023/05/08 10:41:43;;;;;;;1999.90;999.90;;;;;;;13.03;100.00;98399.38;5011739;28;20139;-74
2023/05/08 10:44:10;;;;;;;1999.90;999.90;;;;;;;13.20;100.00;98405.97;5011707;28;20030;-73
2023/05/08 10:46:38;;;;;;;1999.90;999.90;;;;;;;13.24;100.00;98411.66;5011480;28;20030;-73
2023/05/08 10:49:50;;;;;;;1999.90;999.90;;;;;;;13.09;100.00;98410.00;5011697;28;20069;-73
2023/05/08 10:52:22;;;;;;;1999.90;999.90;;;;;;;13.06;100.00;98416.03;4979708;28;20514;-73